sensor_id;sensor_type;location;lat;lon;timestamp;temperature;humidity
10042;DHT22;5061;49.068;12.058;2023-08-01T00:01:59;18.40;99.90
10042;DHT22;5061;49.068;12.058;2023-08-01T00:05:20;18.40;99.90
10042;DHT22;5061;49.068;12.058;2023-08-01T00:08:40;18.40;99.90
10042;DHT22;5061;49.068;12.058;2023-08-01T00:12:01;18.40;99.90
10042;DHT22;5061;49.068;12.058;2023-08-01T00:15:21;18.40;99.90
10042;DHT22;5061;49.068;12.058;2023-08-01T00:18:42;18.40;99.90
10042;DHT22;5061;49.068;12.058;2023-08-01T00:22:04;18.40;99.90
10042;DHT22;5061;49.068;12.058;2023-08-01T00:25:24;18.30;99.90
10042;DHT22;5061;49.068;12.058;2023-08-01T00:28:45;18.30;99.90
10042;DHT22;5061;49.068;12.058;2023-08-01T00:32:06;18.30;99.90
10042;DHT22;5061;49.068;12.058;2023-08-01T00:35:26;18.30;99.90
10042;DHT22;5061;49.068;12.058;2023-08-01T00:38:47;18.30;99.90
10042;DHT22;5061;49.068;12.058;2023-08-01T00:42:09;18.30;99.90
10042;DHT22;5061;49.068;12.058;2023-08-01T00:45:30;18.20;99.90
10042;DHT22;5061;49.068;12.058;2023-08-01T00:48:51;18.20;99.90
10042;DHT22;5061;49.068;12.058;2023-08-01T00:52:12;18.20;99.90
10042;DHT22;5061;49.068;12.058;2023-08-01T00:55:34;18.20;99.90
10042;DHT22;5061;49.068;12.058;2023-08-01T00:58:55;18.20;99.90
10042;DHT22;5061;49.068;12.058;2023-08-01T01:02:15;18.20;99.90
10042;DHT22;5061;49.068;12.058;2023-08-01T01:05:37;18.20;99.90
10042;DHT22;5061;49.068;12.058;2023-08-01T01:08:59;18.20;99.90
10042;DHT22;5061;49.068;12.058;2023-08-01T01:12:19;18.20;99.90
10042;DHT22;5061;49.068;12.058;2023-08-01T01:15:40;18.20;99.90
10042;DHT22;5061;49.068;12.058;2023-08-01T01:19:00;18.20;99.90
10042;DHT22;5061;49.068;12.058;2023-08-01T01:22:21;18.20;99.90
10042;DHT22;5061;49.068;12.058;2023-08-01T01:25:42;18.20;99.90
10042;DHT22;5061;49.068;12.058;2023-08-01T01:29:04;18.20;99.90
10042;DHT22;5061;49.068;12.058;2023-08-01T01:32:25;18.20;99.90
10042;DHT22;5061;49.068;12.058;2023-08-01T01:35:47;18.10;99.90
10042;DHT22;5061;49.068;12.058;2023-08-01T01:39:08;18.10;99.90
10042;DHT22;5061;49.068;12.058;2023-08-01T01:42:29;18.10;99.90
10042;DHT22;5061;49.068;12.058;2023-08-01T01:45:49;18.10;99.90
10042;DHT22;5061;49.068;12.058;2023-08-01T01:49:10;18.00;99.90
10042;DHT22;5061;49.068;12.058;2023-08-01T01:52:30;18.00;99.90
10042;DHT22;5061;49.068;12.058;2023-08-01T01:55:51;18.00;99.90
10042;DHT22;5061;49.068;12.058;2023-08-01T01:59:12;17.90;99.90
10042;DHT22;5061;49.068;12.058;2023-08-01T02:02:32;17.90;99.90
10042;DHT22;5061;49.068;12.058;2023-08-01T02:05:53;17.90;99.90
10042;DHT22;5061;49.068;12.058;2023-08-01T02:09:13;17.90;99.90
10042;DHT22;5061;49.068;12.058;2023-08-01T02:12:34;17.90;99.90
10042;DHT22;5061;49.068;12.058;2023-08-01T02:15:56;17.90;99.90
10042;DHT22;5061;49.068;12.058;2023-08-01T02:19:16;17.80;99.90
10042;DHT22;5061;49.068;12.058;2023-08-01T02:22:37;17.80;99.90
10042;DHT22;5061;49.068;12.058;2023-08-01T02:25:57;17.80;99.90
10042;DHT22;5061;49.068;12.058;2023-08-01T02:29:18;17.80;99.90
10042;DHT22;5061;49.068;12.058;2023-08-01T02:32:38;17.70;99.90
10042;DHT22;5061;49.068;12.058;2023-08-01T02:35:59;17.70;99.90
10042;DHT22;5061;49.068;12.058;2023-08-01T02:39:20;17.80;99.90
10042;DHT22;5061;49.068;12.058;2023-08-01T02:42:40;17.80;99.90
10042;DHT22;5061;49.068;12.058;2023-08-01T02:46:01;17.80;99.90
10042;DHT22;5061;49.068;12.058;2023-08-01T02:49:21;17.80;99.90
10042;DHT22;5061;49.068;12.058;2023-08-01T02:52:42;17.80;99.90
10042;DHT22;5061;49.068;12.058;2023-08-01T02:56:03;17.80;99.90
10042;DHT22;5061;49.068;12.058;2023-08-01T02:59:25;17.80;99.90
10042;DHT22;5061;49.068;12.058;2023-08-01T03:02:45;17.80;99.90
10042;DHT22;5061;49.068;12.058;2023-08-01T03:06:06;17.80;99.90
10042;DHT22;5061;49.068;12.058;2023-08-01T03:09:27;17.80;99.90
10042;DHT22;5061;49.068;12.058;2023-08-01T03:12:48;17.80;99.90
10042;DHT22;5061;49.068;12.058;2023-08-01T03:16:09;17.80;99.90
10042;DHT22;5061;49.068;12.058;2023-08-01T03:19:30;17.80;99.90
10042;DHT22;5061;49.068;12.058;2023-08-01T03:22:51;17.80;99.90
10042;DHT22;5061;49.068;12.058;2023-08-01T03:26:12;17.80;99.90
10042;DHT22;5061;49.068;12.058;2023-08-01T03:29:33;17.70;99.90
10042;DHT22;5061;49.068;12.058;2023-08-01T03:32:53;17.70;99.90
10042;DHT22;5061;49.068;12.058;2023-08-01T03:36:14;17.70;99.90
10042;DHT22;5061;49.068;12.058;2023-08-01T03:39:35;17.60;99.90
10042;DHT22;5061;49.068;12.058;2023-08-01T03:42:55;17.60;99.90
10042;DHT22;5061;49.068;12.058;2023-08-01T03:46:16;17.60;99.90
10042;DHT22;5061;49.068;12.058;2023-08-01T03:49:36;17.60;99.90
10042;DHT22;5061;49.068;12.058;2023-08-01T03:52:59;17.50;99.90
10042;DHT22;5061;49.068;12.058;2023-08-01T03:56:19;17.50;99.90
10042;DHT22;5061;49.068;12.058;2023-08-01T03:59:40;17.50;99.90
10042;DHT22;5061;49.068;12.058;2023-08-01T04:03:01;17.50;99.90
10042;DHT22;5061;49.068;12.058;2023-08-01T04:06:21;17.50;99.90
10042;DHT22;5061;49.068;12.058;2023-08-01T04:09:42;17.50;99.90
10042;DHT22;5061;49.068;12.058;2023-08-01T04:13:03;17.60;99.90
10042;DHT22;5061;49.068;12.058;2023-08-01T04:16:24;17.60;99.90
10042;DHT22;5061;49.068;12.058;2023-08-01T04:19:44;17.60;99.90
10042;DHT22;5061;49.068;12.058;2023-08-01T04:23:05;17.50;99.90
10042;DHT22;5061;49.068;12.058;2023-08-01T04:26:26;17.50;99.90
10042;DHT22;5061;49.068;12.058;2023-08-01T04:29:47;17.50;99.90
10042;DHT22;5061;49.068;12.058;2023-08-01T04:33:08;17.40;99.90
10042;DHT22;5061;49.068;12.058;2023-08-01T04:36:28;17.40;99.90
10042;DHT22;5061;49.068;12.058;2023-08-01T04:39:49;17.40;99.90
10042;DHT22;5061;49.068;12.058;2023-08-01T04:43:11;17.30;99.90
10042;DHT22;5061;49.068;12.058;2023-08-01T04:46:32;17.30;99.90
10042;DHT22;5061;49.068;12.058;2023-08-01T04:49:52;17.30;99.90
10042;DHT22;5061;49.068;12.058;2023-08-01T04:53:13;17.30;99.90
10042;DHT22;5061;49.068;12.058;2023-08-01T04:56:34;17.30;99.90
10042;DHT22;5061;49.068;12.058;2023-08-01T04:59:54;17.30;99.90
10042;DHT22;5061;49.068;12.058;2023-08-01T05:03:15;17.20;99.90
10042;DHT22;5061;49.068;12.058;2023-08-01T05:06:35;17.20;99.90
10042;DHT22;5061;49.068;12.058;2023-08-01T05:09:56;17.20;99.90
10042;DHT22;5061;49.068;12.058;2023-08-01T05:13:16;17.20;99.90
10042;DHT22;5061;49.068;12.058;2023-08-01T05:16:37;17.20;99.90
10042;DHT22;5061;49.068;12.058;2023-08-01T05:19:58;17.20;99.90
10042;DHT22;5061;49.068;12.058;2023-08-01T05:23:18;17.10;99.90
10042;DHT22;5061;49.068;12.058;2023-08-01T05:26:39;17.10;99.90
10042;DHT22;5061;49.068;12.058;2023-08-01T05:29:59;17.10;99.90
10042;DHT22;5061;49.068;12.058;2023-08-01T05:33:20;17.00;99.90
10042;DHT22;5061;49.068;12.058;2023-08-01T05:36:41;17.00;99.90
10042;DHT22;5061;49.068;12.058;2023-08-01T05:40:04;17.00;99.90
10042;DHT22;5061;49.068;12.058;2023-08-01T05:43:25;17.00;99.90
10042;DHT22;5061;49.068;12.058;2023-08-01T05:46:46;17.00;99.90
10042;DHT22;5061;49.068;12.058;2023-08-01T05:50:07;17.00;99.90
10042;DHT22;5061;49.068;12.058;2023-08-01T05:53:28;17.00;99.90
10042;DHT22;5061;49.068;12.058;2023-08-01T05:56:49;17.00;99.90
10042;DHT22;5061;49.068;12.058;2023-08-01T06:00:10;16.90;99.90
10042;DHT22;5061;49.068;12.058;2023-08-01T06:03:31;16.90;99.90
10042;DHT22;5061;49.068;12.058;2023-08-01T06:06:51;16.90;99.90
10042;DHT22;5061;49.068;12.058;2023-08-01T06:10:12;16.90;99.90
10042;DHT22;5061;49.068;12.058;2023-08-01T06:13:33;16.90;99.90
10042;DHT22;5061;49.068;12.058;2023-08-01T06:16:53;16.90;99.90
10042;DHT22;5061;49.068;12.058;2023-08-01T06:20:14;16.90;99.90
10042;DHT22;5061;49.068;12.058;2023-08-01T06:23:34;17.00;99.90
10042;DHT22;5061;49.068;12.058;2023-08-01T06:26:55;17.00;99.90
10042;DHT22;5061;49.068;12.058;2023-08-01T06:30:16;17.00;99.90
10042;DHT22;5061;49.068;12.058;2023-08-01T06:33:36;17.00;99.90
10042;DHT22;5061;49.068;12.058;2023-08-01T06:36:57;17.10;99.90
10042;DHT22;5061;49.068;12.058;2023-08-01T06:40:17;17.10;99.90
10042;DHT22;5061;49.068;12.058;2023-08-01T06:43:38;17.10;99.90
10042;DHT22;5061;49.068;12.058;2023-08-01T06:46:59;17.10;99.90
10042;DHT22;5061;49.068;12.058;2023-08-01T06:50:19;17.20;99.90
10042;DHT22;5061;49.068;12.058;2023-08-01T06:53:40;17.20;99.90
10042;DHT22;5061;49.068;12.058;2023-08-01T06:57:00;17.20;99.90
10042;DHT22;5061;49.068;12.058;2023-08-01T07:00:21;17.20;99.90
10042;DHT22;5061;49.068;12.058;2023-08-01T07:03:42;17.20;99.90
10042;DHT22;5061;49.068;12.058;2023-08-01T07:07:03;17.20;99.90
10042;DHT22;5061;49.068;12.058;2023-08-01T07:10:23;17.30;99.90
10042;DHT22;5061;49.068;12.058;2023-08-01T07:13:44;17.30;99.90
10042;DHT22;5061;49.068;12.058;2023-08-01T07:17:05;17.30;99.90
10042;DHT22;5061;49.068;12.058;2023-08-01T07:20:25;17.30;99.90
10042;DHT22;5061;49.068;12.058;2023-08-01T07:23:46;17.40;99.90
10042;DHT22;5061;49.068;12.058;2023-08-01T07:27:08;17.40;99.90
10042;DHT22;5061;49.068;12.058;2023-08-01T07:30:29;17.40;99.90
10042;DHT22;5061;49.068;12.058;2023-08-01T07:33:50;17.40;99.90
10042;DHT22;5061;49.068;12.058;2023-08-01T07:37:10;17.50;99.90
10042;DHT22;5061;49.068;12.058;2023-08-01T07:40:31;17.50;99.90
10042;DHT22;5061;49.068;12.058;2023-08-01T07:43:51;17.60;99.90
10042;DHT22;5061;49.068;12.058;2023-08-01T07:47:12;17.60;99.90
10042;DHT22;5061;49.068;12.058;2023-08-01T07:50:33;17.70;99.90
10042;DHT22;5061;49.068;12.058;2023-08-01T07:53:55;17.70;99.90
10042;DHT22;5061;49.068;12.058;2023-08-01T07:57:16;17.80;99.90
10042;DHT22;5061;49.068;12.058;2023-08-01T08:00:36;17.90;99.90
10042;DHT22;5061;49.068;12.058;2023-08-01T08:03:57;17.90;99.90
10042;DHT22;5061;49.068;12.058;2023-08-01T08:07:18;18.00;99.90
10042;DHT22;5061;49.068;12.058;2023-08-01T08:10:38;18.00;99.90
10042;DHT22;5061;49.068;12.058;2023-08-01T08:13:59;18.00;99.90
10042;DHT22;5061;49.068;12.058;2023-08-01T08:17:20;18.00;99.90
10042;DHT22;5061;49.068;12.058;2023-08-01T08:20:44;18.00;99.90
10042;DHT22;5061;49.068;12.058;2023-08-01T08:24:05;18.00;99.90
10042;DHT22;5061;49.068;12.058;2023-08-01T08:27:26;18.00;99.90
10042;DHT22;5061;49.068;12.058;2023-08-01T08:30:47;18.00;99.90
10042;DHT22;5061;49.068;12.058;2023-08-01T08:34:07;18.00;99.90
10042;DHT22;5061;49.068;12.058;2023-08-01T08:37:28;18.00;99.90
10042;DHT22;5061;49.068;12.058;2023-08-01T08:41:10;18.00;99.90
10042;DHT22;5061;49.068;12.058;2023-08-01T08:44:31;18.00;99.90
10042;DHT22;5061;49.068;12.058;2023-08-01T08:52:21;18.00;99.90
10042;DHT22;5061;49.068;12.058;2023-08-01T08:56:02;18.00;99.90
10042;DHT22;5061;49.068;12.058;2023-08-01T08:59:23;18.00;99.90
10042;DHT22;5061;49.068;12.058;2023-08-01T09:02:45;18.00;99.90
10042;DHT22;5061;49.068;12.058;2023-08-01T09:06:13;18.00;99.90
10042;DHT22;5061;49.068;12.058;2023-08-01T09:09:35;18.10;99.90
10042;DHT22;5061;49.068;12.058;2023-08-01T09:12:55;18.10;99.90
10042;DHT22;5061;49.068;12.058;2023-08-01T09:16:16;18.10;99.90
10042;DHT22;5061;49.068;12.058;2023-08-01T09:19:37;18.10;99.90
10042;DHT22;5061;49.068;12.058;2023-08-01T09:22:57;18.10;99.90
10042;DHT22;5061;49.068;12.058;2023-08-01T09:26:19;18.10;99.90
10042;DHT22;5061;49.068;12.058;2023-08-01T09:29:40;18.10;99.90
10042;DHT22;5061;49.068;12.058;2023-08-01T09:33:01;18.10;99.90
10042;DHT22;5061;49.068;12.058;2023-08-01T09:36:22;18.10;99.90
10042;DHT22;5061;49.068;12.058;2023-08-01T09:39:43;18.10;99.90
10042;DHT22;5061;49.068;12.058;2023-08-01T09:43:07;18.10;99.90
10042;DHT22;5061;49.068;12.058;2023-08-01T09:46:28;18.10;99.90
10042;DHT22;5061;49.068;12.058;2023-08-01T09:49:49;18.10;99.90
10042;DHT22;5061;49.068;12.058;2023-08-01T09:53:14;18.10;99.90
10042;DHT22;5061;49.068;12.058;2023-08-01T09:56:35;18.10;99.90
10042;DHT22;5061;49.068;12.058;2023-08-01T09:59:59;18.10;99.90
10042;DHT22;5061;49.068;12.058;2023-08-01T10:03:21;18.10;99.90
10042;DHT22;5061;49.068;12.058;2023-08-01T10:06:43;18.10;99.90
10042;DHT22;5061;49.068;12.058;2023-08-01T10:10:06;18.10;99.90
10042;DHT22;5061;49.068;12.058;2023-08-01T10:13:27;18.10;99.90
10042;DHT22;5061;49.068;12.058;2023-08-01T10:16:49;18.10;99.90
10042;DHT22;5061;49.068;12.058;2023-08-01T10:20:12;18.00;99.90
10042;DHT22;5061;49.068;12.058;2023-08-01T10:23:50;18.00;99.90
10042;DHT22;5061;49.068;12.058;2023-08-01T10:30:34;18.00;99.90
10042;DHT22;5061;49.068;12.058;2023-08-01T10:34:12;18.00;99.90
10042;DHT22;5061;49.068;12.058;2023-08-01T10:37:43;18.00;99.90
10042;DHT22;5061;49.068;12.058;2023-08-01T10:41:04;18.00;99.90
10042;DHT22;5061;49.068;12.058;2023-08-01T10:44:26;18.00;99.90
10042;DHT22;5061;49.068;12.058;2023-08-01T10:47:48;18.00;99.90
10042;DHT22;5061;49.068;12.058;2023-08-01T10:51:09;18.10;99.90
10042;DHT22;5061;49.068;12.058;2023-08-01T10:54:29;18.10;99.90
10042;DHT22;5061;49.068;12.058;2023-08-01T10:57:50;18.10;99.90
10042;DHT22;5061;49.068;12.058;2023-08-01T11:01:11;18.10;99.90
10042;DHT22;5061;49.068;12.058;2023-08-01T11:04:31;18.10;99.90
10042;DHT22;5061;49.068;12.058;2023-08-01T11:08:02;18.10;99.90
10042;DHT22;5061;49.068;12.058;2023-08-01T11:11:24;18.10;99.90
10042;DHT22;5061;49.068;12.058;2023-08-01T11:14:45;18.20;99.90
10042;DHT22;5061;49.068;12.058;2023-08-01T11:18:09;18.20;99.90
10042;DHT22;5061;49.068;12.058;2023-08-01T11:21:30;18.20;99.90
10042;DHT22;5061;49.068;12.058;2023-08-01T11:24:51;18.30;99.90
10042;DHT22;5061;49.068;12.058;2023-08-01T11:28:16;18.30;99.90
10042;DHT22;5061;49.068;12.058;2023-08-01T11:31:37;18.30;99.90
10042;DHT22;5061;49.068;12.058;2023-08-01T11:34:58;18.30;99.90
10042;DHT22;5061;49.068;12.058;2023-08-01T11:38:19;18.30;99.90
10042;DHT22;5061;49.068;12.058;2023-08-01T11:41:40;18.30;99.90
10042;DHT22;5061;49.068;12.058;2023-08-01T11:45:13;18.20;99.90
10042;DHT22;5061;49.068;12.058;2023-08-01T11:48:33;18.20;99.90
10042;DHT22;5061;49.068;12.058;2023-08-01T11:51:54;18.20;99.90
10042;DHT22;5061;49.068;12.058;2023-08-01T11:55:20;18.10;99.90
10042;DHT22;5061;49.068;12.058;2023-08-01T11:58:41;18.10;99.90
10042;DHT22;5061;49.068;12.058;2023-08-01T12:02:02;18.10;99.90
10042;DHT22;5061;49.068;12.058;2023-08-01T12:05:23;18.10;99.90
10042;DHT22;5061;49.068;12.058;2023-08-01T12:08:45;18.10;99.90
10042;DHT22;5061;49.068;12.058;2023-08-01T12:12:08;18.10;99.90
10042;DHT22;5061;49.068;12.058;2023-08-01T12:15:29;18.20;99.90
10042;DHT22;5061;49.068;12.058;2023-08-01T12:18:49;18.20;99.90
10042;DHT22;5061;49.068;12.058;2023-08-01T12:22:10;18.20;99.90
10042;DHT22;5061;49.068;12.058;2023-08-01T12:25:30;18.30;99.90
10042;DHT22;5061;49.068;12.058;2023-08-01T12:28:51;18.30;99.90
10042;DHT22;5061;49.068;12.058;2023-08-01T12:32:12;18.30;99.90
10042;DHT22;5061;49.068;12.058;2023-08-01T12:35:34;18.40;99.90
10042;DHT22;5061;49.068;12.058;2023-08-01T12:38:55;18.40;99.90
10042;DHT22;5061;49.068;12.058;2023-08-01T12:42:15;18.40;99.90
10042;DHT22;5061;49.068;12.058;2023-08-01T12:45:36;18.40;99.90
10042;DHT22;5061;49.068;12.058;2023-08-01T12:48:56;18.50;99.90
10042;DHT22;5061;49.068;12.058;2023-08-01T12:52:24;18.60;99.90
10042;DHT22;5061;49.068;12.058;2023-08-01T12:55:46;18.60;99.90
10042;DHT22;5061;49.068;12.058;2023-08-01T12:59:07;18.70;99.90
10042;DHT22;5061;49.068;12.058;2023-08-01T13:02:28;18.80;99.90
10042;DHT22;5061;49.068;12.058;2023-08-01T13:05:49;18.90;99.90
10042;DHT22;5061;49.068;12.058;2023-08-01T13:09:10;18.90;99.90
10042;DHT22;5061;49.068;12.058;2023-08-01T13:12:32;19.00;99.90
10042;DHT22;5061;49.068;12.058;2023-08-01T13:15:52;19.10;99.90
10042;DHT22;5061;49.068;12.058;2023-08-01T13:19:13;19.20;99.90
10042;DHT22;5061;49.068;12.058;2023-08-01T13:22:34;19.40;99.90
10042;DHT22;5061;49.068;12.058;2023-08-01T13:25:54;19.60;99.90
10042;DHT22;5061;49.068;12.058;2023-08-01T13:29:15;19.70;99.90
10042;DHT22;5061;49.068;12.058;2023-08-01T13:32:36;19.70;99.90
10042;DHT22;5061;49.068;12.058;2023-08-01T13:35:56;19.80;99.90
10042;DHT22;5061;49.068;12.058;2023-08-01T13:39:18;20.10;99.90
10042;DHT22;5061;49.068;12.058;2023-08-01T13:42:40;20.30;99.90
10042;DHT22;5061;49.068;12.058;2023-08-01T13:46:17;20.30;99.90
10042;DHT22;5061;49.068;12.058;2023-08-01T13:49:38;20.30;99.90
10042;DHT22;5061;49.068;12.058;2023-08-01T13:52:59;20.20;99.90
10042;DHT22;5061;49.068;12.058;2023-08-01T13:56:19;20.30;99.90
10042;DHT22;5061;49.068;12.058;2023-08-01T13:59:42;20.50;99.90
10042;DHT22;5061;49.068;12.058;2023-08-01T14:03:03;20.70;99.90
10042;DHT22;5061;49.068;12.058;2023-08-01T14:06:24;20.90;99.90
10042;DHT22;5061;49.068;12.058;2023-08-01T14:09:44;21.00;99.90
10042;DHT22;5061;49.068;12.058;2023-08-01T14:13:05;21.00;99.90
10042;DHT22;5061;49.068;12.058;2023-08-01T14:16:25;21.10;99.90
10042;DHT22;5061;49.068;12.058;2023-08-01T14:19:46;21.10;99.90
10042;DHT22;5061;49.068;12.058;2023-08-01T14:23:07;21.20;99.90
10042;DHT22;5061;49.068;12.058;2023-08-01T14:26:29;21.30;99.90
10042;DHT22;5061;49.068;12.058;2023-08-01T14:29:49;21.40;99.90
10042;DHT22;5061;49.068;12.058;2023-08-01T14:33:10;21.40;99.90
10042;DHT22;5061;49.068;12.058;2023-08-01T14:36:31;21.30;99.90
10042;DHT22;5061;49.068;12.058;2023-08-01T14:39:51;21.10;99.90
10042;DHT22;5061;49.068;12.058;2023-08-01T14:43:12;20.90;99.90
10042;DHT22;5061;49.068;12.058;2023-08-01T14:46:33;20.60;99.90
10042;DHT22;5061;49.068;12.058;2023-08-01T14:49:55;20.30;99.90
10042;DHT22;5061;49.068;12.058;2023-08-01T14:53:16;19.90;99.90
10042;DHT22;5061;49.068;12.058;2023-08-01T14:56:37;19.70;99.90
10042;DHT22;5061;49.068;12.058;2023-08-01T14:59:58;19.50;99.90
10042;DHT22;5061;49.068;12.058;2023-08-01T15:03:19;19.40;99.90
10042;DHT22;5061;49.068;12.058;2023-08-01T15:06:40;19.40;99.90
10042;DHT22;5061;49.068;12.058;2023-08-01T15:10:00;19.40;99.90
10042;DHT22;5061;49.068;12.058;2023-08-01T15:13:21;19.40;99.90
10042;DHT22;5061;49.068;12.058;2023-08-01T15:16:41;19.40;99.90
10042;DHT22;5061;49.068;12.058;2023-08-01T15:20:03;19.40;99.90
10042;DHT22;5061;49.068;12.058;2023-08-01T15:23:24;19.50;99.90
10042;DHT22;5061;49.068;12.058;2023-08-01T15:26:44;19.50;99.90
10042;DHT22;5061;49.068;12.058;2023-08-01T15:30:06;19.60;99.90
10042;DHT22;5061;49.068;12.058;2023-08-01T15:33:27;19.70;99.90
10042;DHT22;5061;49.068;12.058;2023-08-01T15:36:47;19.70;99.90
10042;DHT22;5061;49.068;12.058;2023-08-01T15:40:08;19.80;99.90
10042;DHT22;5061;49.068;12.058;2023-08-01T15:43:29;19.80;99.90
10042;DHT22;5061;49.068;12.058;2023-08-01T15:46:56;19.80;99.90
10042;DHT22;5061;49.068;12.058;2023-08-01T15:50:17;19.80;99.90
10042;DHT22;5061;49.068;12.058;2023-08-01T15:53:37;19.80;99.90
10042;DHT22;5061;49.068;12.058;2023-08-01T15:56:58;19.90;99.90
10042;DHT22;5061;49.068;12.058;2023-08-01T19:09:38;17.90;99.90
10042;DHT22;5061;49.068;12.058;2023-08-01T19:12:59;17.80;99.90
10042;DHT22;5061;49.068;12.058;2023-08-01T19:16:19;17.80;99.90
10042;DHT22;5061;49.068;12.058;2023-08-01T19:19:42;17.70;99.90
10042;DHT22;5061;49.068;12.058;2023-08-01T19:23:03;17.60;99.90
10042;DHT22;5061;49.068;12.058;2023-08-01T19:26:24;17.50;99.90
10042;DHT22;5061;49.068;12.058;2023-08-01T19:29:52;17.50;99.90
10042;DHT22;5061;49.068;12.058;2023-08-01T19:33:13;17.40;99.90
10042;DHT22;5061;49.068;12.058;2023-08-01T19:36:33;17.30;99.90
10042;DHT22;5061;49.068;12.058;2023-08-01T19:39:54;17.30;99.90
10042;DHT22;5061;49.068;12.058;2023-08-01T19:43:15;17.10;99.90
10042;DHT22;5061;49.068;12.058;2023-08-01T19:46:35;17.10;99.90
10042;DHT22;5061;49.068;12.058;2023-08-01T19:49:56;17.10;99.90
10042;DHT22;5061;49.068;12.058;2023-08-01T19:53:17;17.00;99.90
10042;DHT22;5061;49.068;12.058;2023-08-01T19:56:37;16.90;99.90
10042;DHT22;5061;49.068;12.058;2023-08-01T19:59:58;16.90;99.90
10042;DHT22;5061;49.068;12.058;2023-08-01T20:03:19;16.80;99.90
10042;DHT22;5061;49.068;12.058;2023-08-01T20:06:40;16.80;99.90
10042;DHT22;5061;49.068;12.058;2023-08-01T20:10:01;16.70;99.90
10042;DHT22;5061;49.068;12.058;2023-08-01T20:13:22;16.60;99.90
10042;DHT22;5061;49.068;12.058;2023-08-01T20:16:45;16.60;99.90
10042;DHT22;5061;49.068;12.058;2023-08-01T20:20:06;16.60;99.90
10042;DHT22;5061;49.068;12.058;2023-08-01T20:23:27;16.60;99.90
10042;DHT22;5061;49.068;12.058;2023-08-01T20:26:48;16.60;99.90
10042;DHT22;5061;49.068;12.058;2023-08-01T20:30:09;16.60;99.90
10042;DHT22;5061;49.068;12.058;2023-08-01T20:33:33;16.60;99.90
10042;DHT22;5061;49.068;12.058;2023-08-01T20:36:54;16.60;99.90
10042;DHT22;5061;49.068;12.058;2023-08-01T20:40:17;16.60;99.90
10042;DHT22;5061;49.068;12.058;2023-08-01T20:43:40;16.60;99.90
10042;DHT22;5061;49.068;12.058;2023-08-01T20:47:04;16.60;99.90
10042;DHT22;5061;49.068;12.058;2023-08-01T20:50:28;16.50;99.90
10042;DHT22;5061;49.068;12.058;2023-08-01T20:53:49;16.50;99.90
10042;DHT22;5061;49.068;12.058;2023-08-01T20:57:09;16.50;99.90
10042;DHT22;5061;49.068;12.058;2023-08-01T21:00:32;16.40;99.90
10042;DHT22;5061;49.068;12.058;2023-08-01T21:03:53;16.40;99.90
10042;DHT22;5061;49.068;12.058;2023-08-01T21:07:13;16.30;99.90
10042;DHT22;5061;49.068;12.058;2023-08-01T21:10:34;16.30;99.90
10042;DHT22;5061;49.068;12.058;2023-08-01T21:13:54;16.30;99.90
10042;DHT22;5061;49.068;12.058;2023-08-01T21:17:16;16.20;99.90
10042;DHT22;5061;49.068;12.058;2023-08-01T21:20:36;16.20;99.90
10042;DHT22;5061;49.068;12.058;2023-08-01T21:24:00;16.10;99.90
10042;DHT22;5061;49.068;12.058;2023-08-01T21:27:21;16.10;99.90
10042;DHT22;5061;49.068;12.058;2023-08-01T21:30:44;16.00;99.90
10042;DHT22;5061;49.068;12.058;2023-08-01T21:34:07;16.00;99.90
10042;DHT22;5061;49.068;12.058;2023-08-01T21:37:27;16.00;99.90
10042;DHT22;5061;49.068;12.058;2023-08-01T21:40:48;16.00;99.90
10042;DHT22;5061;49.068;12.058;2023-08-01T21:44:08;16.00;99.90
10042;DHT22;5061;49.068;12.058;2023-08-01T21:47:29;16.00;99.90
10042;DHT22;5061;49.068;12.058;2023-08-01T21:50:52;15.90;99.90
10042;DHT22;5061;49.068;12.058;2023-08-01T21:54:13;15.90;99.90
10042;DHT22;5061;49.068;12.058;2023-08-01T21:57:33;15.90;99.90
10042;DHT22;5061;49.068;12.058;2023-08-01T22:00:54;15.80;99.90
10042;DHT22;5061;49.068;12.058;2023-08-01T22:04:15;15.80;99.90
10042;DHT22;5061;49.068;12.058;2023-08-01T22:07:35;15.80;99.90
10042;DHT22;5061;49.068;12.058;2023-08-01T22:10:56;15.80;99.90
10042;DHT22;5061;49.068;12.058;2023-08-01T22:14:18;15.80;99.90
10042;DHT22;5061;49.068;12.058;2023-08-01T22:17:40;15.80;99.90
10042;DHT22;5061;49.068;12.058;2023-08-01T22:21:00;15.70;99.90
10042;DHT22;5061;49.068;12.058;2023-08-01T22:24:21;15.70;99.90
10042;DHT22;5061;49.068;12.058;2023-08-01T22:27:42;15.70;99.90
10042;DHT22;5061;49.068;12.058;2023-08-01T22:31:02;15.70;99.90
10042;DHT22;5061;49.068;12.058;2023-08-01T22:34:24;15.70;99.90
10042;DHT22;5061;49.068;12.058;2023-08-01T22:37:45;15.70;99.90
10042;DHT22;5061;49.068;12.058;2023-08-01T22:41:16;15.70;99.90
10042;DHT22;5061;49.068;12.058;2023-08-01T22:44:37;15.70;99.90
10042;DHT22;5061;49.068;12.058;2023-08-01T22:47:57;15.70;99.90
10042;DHT22;5061;49.068;12.058;2023-08-01T22:51:18;15.60;99.90
10042;DHT22;5061;49.068;12.058;2023-08-01T22:54:39;15.70;99.90
10042;DHT22;5061;49.068;12.058;2023-08-01T22:58:00;15.70;99.90
10042;DHT22;5061;49.068;12.058;2023-08-01T23:01:20;15.70;99.90
10042;DHT22;5061;49.068;12.058;2023-08-01T23:04:41;15.70;99.90
10042;DHT22;5061;49.068;12.058;2023-08-01T23:08:02;15.70;99.90
10042;DHT22;5061;49.068;12.058;2023-08-01T23:11:22;15.70;99.90
10042;DHT22;5061;49.068;12.058;2023-08-01T23:14:43;15.70;99.90
10042;DHT22;5061;49.068;12.058;2023-08-01T23:18:03;15.70;99.90
10042;DHT22;5061;49.068;12.058;2023-08-01T23:21:24;15.70;99.90
10042;DHT22;5061;49.068;12.058;2023-08-01T23:24:45;15.60;99.90
10042;DHT22;5061;49.068;12.058;2023-08-01T23:28:08;15.60;99.90
10042;DHT22;5061;49.068;12.058;2023-08-01T23:31:28;15.60;99.90
10042;DHT22;5061;49.068;12.058;2023-08-01T23:34:49;15.60;99.90
10042;DHT22;5061;49.068;12.058;2023-08-01T23:38:09;15.60;99.90
10042;DHT22;5061;49.068;12.058;2023-08-01T23:41:30;15.60;99.90
10042;DHT22;5061;49.068;12.058;2023-08-01T23:44:51;15.60;99.90
10042;DHT22;5061;49.068;12.058;2023-08-01T23:48:11;15.60;99.90
10042;DHT22;5061;49.068;12.058;2023-08-01T23:51:32;15.60;99.90
10042;DHT22;5061;49.068;12.058;2023-08-01T23:54:53;15.60;99.90
10042;DHT22;5061;49.068;12.058;2023-08-01T23:58:14;15.60;99.90
